Last 7 Days

Gordon Valley 3 (GV3)

Hourly Data | America/Los_Angeles
as of 10/23/19 9:12 AM PDT
Date & Time Temp (°F) RH (%) Dew Pt (°F) Wind Spd (mph) Wind Dir (°) Wind Gust (mph) Wind Gst Dir (°) Latest Rain (In) Solar Rad Tot Hr (Cal/cm2) Daily Rain (In) Daily Min Temp (°F) Daily Max Temp (°F)
10/23/19 - 0900 56.8 72 47.5 0.4 ENE | 58 4.4 E | 92 0.00 15 0.00 46.7 64.9
10/23/19 - 0800 47.0 90 44.1 1.2 NNE | 27 3.6 NNW | 331 0.00 1 0.00 46.7 52.4
10/23/19 - 0700 48.2 85 43.8 1.5 NNE | 30 3.8 NE | 43 0.00 0 0.00 46.9 52.4
10/23/19 - 0600 47.4 88 44.0 1.9 NNE | 28 4.9 ENE | 70 0.00 0 0.00 47.1 52.4
10/23/19 - 0500 48.0 86 44.0 0.7 NNE | 30 3.4 NNW | 348 0.00 0 0.00 47.2 52.4
10/23/19 - 0400 50.0 79 43.8 0.8 NNE | 28 3.8 WNW | 299 0.00 0 0.00 48.6 52.4
10/23/19 - 0300 51.4 76 44.1 1.8 NNE | 26 6.3 NNW | 328 0.00 0 0.00 50.2 52.4
10/23/19 - 0200 50.8 78 44.1 1.0 NNE | 20 4.4 NNW | 344 0.00 0 0.00 50.2 51.4
10/23/19 - 0100 51.9 76 44.6 1.4 NNE | 20 4.1 NNE | 21 0.00 0 0.00 43.3 90.4
10/23/19 - 0000 52.5 76 45.3 1.2 NE | 35 3.9 NE | 36 0.00 0 0.00 43.3 90.4
10/22/19 - 2300 54.9 72 45.9 1.8 NNE | 32 3.9 ENE | 67 0.00 0 0.00 43.3 90.4
10/22/19 - 2200 56.2 69 46.1 1.7 NE | 55 4.4 ENE | 69 0.00 0 0.00 43.3 90.4
10/22/19 - 2100 57.7 69 47.8 1.8 NE | 41 4.4 E | 81 0.00 0 0.00 43.3 90.4
10/22/19 - 2000 60.0 67 48.9 1.2 NE | 51 3.6 NNE | 24 0.00 0 0.00 43.3 90.4
10/22/19 - 1900 67.2 59 52.3 1.3 NNE | 24 2.9 NE | 34 0.00 0 0.00 43.3 90.4
10/22/19 - 1800 83.0 31 48.7 1.9 SSE | 164 4.8 S | 182 0.00 10 0.00 43.3 90.4
10/22/19 - 1700 87.5 26 48.2 4.2 SSW | 199 8.3 SSW | 212 0.00 27 0.00 43.3 90.4
10/22/19 - 1600 89.2 23 46.9 4.2 SSW | 194 8.0 SSW | 197 0.00 43 0.00 43.3 90.4
10/22/19 - 1500 88.1 24 46.5 3.6 SSW | 200 7.4 SSW | 200 0.00 54 0.00 43.3 89.6
10/22/19 - 1400 85.7 25 46.3 3.9 SSW | 205 7.8 SW | 218 0.00 60 0.00 43.3 86.7
10/22/19 - 1300 82.5 28 46.0 3.9 S | 186 8.3 S | 173 0.00 61 0.00 43.3 84.4
10/22/19 - 1200 79.2 31 45.6 3.4 S | 176 6.9 SW | 226 0.00 56 0.00 43.3 81.4
10/22/19 - 1100 75.4 36 46.4 4.1 S | 185 7.3 SW | 218 0.00 46 0.00 43.3 77.1
10/22/19 - 1000 70.9 40 45.4 1.6 S | 190 5.6 SSW | 202 0.00 32 0.00 43.3 73.9
10/22/19 - 0900 55.8 65 43.8 0.3 ENE | 57 3.3 ENE | 70 0.00 16 0.00 43.3 64.9
10/22/19 - 0800 44.4 86 40.6 1.3 NNE | 27 3.9 NE | 43 0.00 2 0.00 43.3 52.8
10/22/19 - 0700 44.2 85 39.9 1.2 NNE | 30 3.4 NNE | 17 0.00 0 0.00 43.8 52.8
10/22/19 - 0600 44.9 82 39.8 1.0 NNE | 31 3.1 ENE | 61 0.00 0 0.00 44.1 52.8
10/22/19 - 0500 45.4 81 40.0 1.1 NNE | 26 4.4 N | 0 0.00 0 0.00 44.8 52.8
10/22/19 - 0400 46.7 79 40.4 1.1 NNE | 30 3.4 NNE | 25 0.00 0 0.00 46.0 52.8
10/22/19 - 0300 48.2 74 40.5 0.8 NE | 37 3.6 NE | 50 0.00 0 0.00 47.5 52.8
10/22/19 - 0200 51.2 66 40.1 1.1 NNE | 24 3.8 NNW | 342 0.00 0 0.00 49.5 52.8
10/22/19 - 0100 55.6 54 39.4 1.2 ENE | 74 3.9 SE | 135 0.00 0 0.00 46.7 89.4
10/22/19 - 0000 62.1 42 38.6 1.5 ESE | 112 5.3 SSE | 166 0.00 0 0.00 46.7 89.4
10/21/19 - 2300 72.2 28 36.5 2.6 S | 171 8.6 N | 0 0.00 0 0.00 46.7 89.4
10/21/19 - 2200 76.3 22 35.1 4.7 N | 350 12.8 NNW | 344 0.00 0 0.00 46.7 89.4
10/21/19 - 2100 68.8 31 36.8 4.1 NNE | 26 7.6 NNW | 347 0.00 0 0.00 46.7 89.4
10/21/19 - 2000 74.3 25 35.9 4.6 NNE | 13 8.6 N | 350 0.00 0 0.00 46.7 89.4
10/21/19 - 1900 80.2 18 33.0 5.7 NNW | 341 10.8 NW | 314 0.00 0 0.00 46.7 89.4
10/21/19 - 1800 85.1 15 32.4 7.8 NNW | 339 14.6 NNW | 341 0.00 12 0.00 46.7 89.4
10/21/19 - 1700 87.6 16 35.8 6.9 NNW | 334 14.5 NW | 313 0.00 29 0.00 46.7 89.4
10/21/19 - 1600 88.5 17 38.3 6.6 NNW | 329 11.8 N | 0 0.00 43 0.00 46.7 89.4
10/21/19 - 1500 88.6 18 39.4 5.9 NNW | 333 12.1 NNE | 17 0.00 55 0.00 46.7 89.4
10/21/19 - 1400 87.2 18 39.2 5.8 NNW | 333 11.6 NNW | 339 0.00 61 0.00 46.7 88.3
10/21/19 - 1300 84.6 21 40.5 5.7 NW | 321 14.0 NNW | 342 0.00 61 0.00 46.7 86.8
10/21/19 - 1200 81.7 24 41.8 6.7 N | 354 12.3 N | 2 0.00 56 0.00 46.7 82.7
10/21/19 - 1100 77.0 31 44.2 5.7 NNW | 336 11.5 NNW | 329 0.00 46 0.00 46.7 80.1
10/21/19 - 1000 72.2 40 46.4 3.3 NNW | 346 7.6 NW | 304 0.00 31 0.00 46.7 74.5
10/21/19 - 0900 62.3 60 48.0 1.5 ENE | 78 4.3 NNE | 19 0.00 15 0.00 46.7 68.9
10/21/19 - 0800 52.5 79 46.2 2.9 ENE | 69 4.8 N | 9 0.00 2 0.00 46.7 58.4
10/21/19 - 0700 48.1 89 45.1 1.5 NE | 41 5.8 ENE | 78 0.00 0 0.00 46.7 58.4
10/21/19 - 0600 52.0 79 45.7 0.4 NNE | 15 2.6 N | 3 0.00 0 0.00 48.4 58.4
10/21/19 - 0500 56.2 71 46.8 2.7 NE | 50 4.6 ENE | 71 0.00 0 0.00 49.8 58.4
10/21/19 - 0400 52.3 78 45.7 1.8 NE | 40 4.8 NNE | 27 0.00 0 0.00 49.8 53.7
10/21/19 - 0300 52.0 78 45.3 1.7 NNE | 33 4.8 NNE | 28 0.00 0 0.00 49.8 53.5
10/21/19 - 0200 51.1 78 44.4 1.8 NE | 53 4.4 ENE | 74 0.00 0 0.00 49.8 52.0
10/21/19 - 0100 50.2 77 43.4 0.7 NE | 44 3.6 E | 80 0.00 0 0.00 47.5 82.5
10/21/19 - 0000 52.3 72 43.7 1.7 NNE | 27 4.1 ENE | 71 0.00 0 0.00 47.5 82.5
10/20/19 - 2300 53.2 69 43.1 2.0 NE | 50 4.3 ENE | 61 0.00 0 0.00 47.5 82.5
10/20/19 - 2200 53.6 67 43.1 0.9 NE | 46 3.8 N | 9 0.00 0 0.00 47.5 82.5
10/20/19 - 2100 54.2 70 44.5 0.7 NNE | 29 2.9 NNE | 25 0.00 0 0.00 47.5 82.5
10/20/19 - 2000 57.0 66 45.9 0.6 NE | 34 3.3 NE | 39 0.00 0 0.00 47.5 82.5
10/20/19 - 1900 66.1 48 45.6 0.8 ESE | 118 5.4 SSE | 151 0.00 0 0.00 47.5 82.5
10/20/19 - 1800 77.5 28 42.1 2.4 WSW | 246 6.9 W | 267 0.00 11 0.00 47.5 82.5
10/20/19 - 1700 80.3 25 41.1 4.3 W | 262 10.3 WSW | 256 0.00 27 0.00 47.5 82.5
10/20/19 - 1600 80.8 24 40.9 3.1 W | 278 9.6 WNW | 298 0.00 42 0.00 47.5 82.5
10/20/19 - 1500 78.9 27 41.9 2.6 SSE | 150 7.6 SSW | 204 0.00 53 0.00 47.5 80.0
10/20/19 - 1400 77.2 31 44.0 5.5 S | 175 10.1 SSE | 153 0.00 59 0.00 47.5 78.5
10/20/19 - 1300 75.6 32 44.0 4.2 S | 171 8.8 S | 186 0.00 60 0.00 47.5 78.0
10/20/19 - 1200 74.7 30 40.9 3.2 ESE | 117 7.8 ESE | 114 0.00 55 0.00 47.5 78.0
10/20/19 - 1100 71.1 35 41.8 3.2 NNE | 22 7.4 NNE | 28 0.00 45 0.00 47.5 72.7
10/20/19 - 1000 66.5 49 46.8 1.7 E | 84 5.6 E | 97 0.00 31 0.00 47.5 69.0
10/20/19 - 0900 58.2 71 48.8 2.1 NNE | 23 5.3 NNW | 347 0.00 15 0.00 47.5 63.0
10/20/19 - 0800 49.0 92 46.8 1.9 NE | 53 5.4 ENE | 71 0.00 2 0.00 47.5 55.8
10/20/19 - 0700 49.3 94 47.7 2.9 NNE | 28 4.4 NE | 54 0.00 0 0.00 47.5 55.8
10/20/19 - 0600 49.3 91 46.8 0.5 NE | 36 2.2 E | 94 0.00 0 0.00 47.5 55.8
10/20/19 - 0500 53.8 86 49.8 2.2 ENE | 77 4.1 NE | 43 0.00 0 0.00 50.0 55.8
10/20/19 - 0400 55.2 84 50.6 2.6 ENE | 57 5.4 E | 88 0.00 0 0.00 50.0 55.8
10/20/19 - 0300 53.6 88 50.3 0.9 ENE | 58 3.8 NNE | 27 0.00 0 0.00 50.0 55.0
10/20/19 - 0200 52.7 92 50.4 1.4 NE | 47 4.3 NE | 54 0.00 0 0.00 50.0 53.5
10/20/19 - 0100 50.7 93 48.9 0.8 ENE | 77 4.1 E | 81 0.00 0 0.00 40.1 75.9
10/20/19 - 0000 53.2 91 50.6 1.1 ENE | 57 4.4 ENE | 77 0.00 0 0.00 40.1 75.9
10/19/19 - 2300 56.5 87 52.7 1.4 NE | 39 4.3 NE | 36 0.00 0 0.00 40.1 75.9
10/19/19 - 2200 54.6 93 52.6 1.7 NNE | 28 5.9 N | 354 0.00 0 0.00 40.1 75.9
10/19/19 - 2100 53.6 92 51.5 0.5 NNE | 33 2.9 NNW | 330 0.00 0 0.00 40.1 75.9
10/19/19 - 2000 57.6 87 53.8 0.4 NE | 52 2.7 NE | 45 0.00 0 0.00 40.1 75.9
10/19/19 - 1900 64.5 74 56.0 1.9 ESE | 118 5.1 SSW | 209 0.00 1 0.00 40.1 75.9
10/19/19 - 1800 70.2 63 57.0 6.9 SW | 216 14.0 SW | 231 0.00 15 0.00 40.1 75.9
10/19/19 - 1700 73.5 57 57.2 6.2 WSW | 238 11.8 SW | 226 0.00 28 0.00 40.1 75.9
10/19/19 - 1600 73.4 57 57.3 6.5 SW | 236 12.3 SSW | 209 0.00 37 0.00 40.1 75.9
10/19/19 - 1500 72.7 57 56.6 8.2 WSW | 240 16.5 SW | 233 0.00 45 0.00 40.1 75.9
10/19/19 - 1400 73.2 53 55.3 8.0 WSW | 244 14.8 SW | 220 0.00 44 0.00 40.1 75.9
10/19/19 - 1300 74.1 50 54.1 3.7 WSW | 249 11.8 SW | 236 0.00 69 0.00 40.1 75.9
10/19/19 - 1200 68.5 52 50.3 6.2 WSW | 246 13.5 SW | 229 0.00 43 0.00 40.1 71.5
10/19/19 - 1100 70.0 46 48.1 3.9 SW | 216 11.5 WSW | 247 0.00 48 0.00 40.1 71.5
10/19/19 - 1000 60.4 60 46.2 1.9 SSW | 195 5.3 SSE | 163 0.00 24 0.00 40.1 65.9
10/19/19 - 0900 49.0 90 46.2 0.0 NW | 313 1.6 WNW | 303 0.00 11 0.00 40.1 57.0
10/19/19 - 0800 43.7 97 42.8 0.4 NNE | 19 3.3 E | 79 0.00 1 0.00 40.1 45.2
10/19/19 - 0700 44.2 96 43.0 0.4 NE | 36 2.7 NE | 45 0.00 0 0.00 40.1 44.9
10/19/19 - 0600 43.2 97 42.4 0.7 NW | 325 4.1 SE | 135 0.00 0 0.00 40.1 44.6
10/19/19 - 0500 42.1 97 41.3 1.0 NE | 40 3.9 NE | 37 0.00 0 0.00 40.1 43.4
10/19/19 - 0400 40.7 97 40.0 0.6 ESE | 113 3.6 SW | 219 0.00 0 0.00 40.1 42.0
10/19/19 - 0300 41.0 96 40.0 0.5 NNE | 30 2.7 NE | 36 0.00 0 0.00 40.2 42.0
10/19/19 - 0200 41.6 96 40.6 0.3 NNE | 20 2.2 NNW | 336 0.00 0 0.00 41.1 42.0
10/19/19 - 0100 42.8 95 41.4 0.4 NNE | 30 2.7 NNE | 25 0.00 0 0.00 41.3 74.5
10/19/19 - 0000 43.9 94 42.3 0.3 NNE | 18 2.6 NE | 37 0.00 0 0.00 41.3 74.5
10/18/19 - 2300 44.8 91 42.4 0.2 NNE | 16 3.1 NW | 323 0.00 0 0.00 41.3 74.5
10/18/19 - 2200 46.7 90 43.8 0.4 NE | 38 2.9 ENE | 68 0.00 0 0.00 41.3 74.5
10/18/19 - 2100 48.5 87 44.8 0.4 NNE | 28 3.3 N | 2 0.00 0 0.00 41.3 74.5
10/18/19 - 2000 52.7 78 46.2 0.6 NNE | 19 3.1 NNE | 14 0.00 0 0.00 41.3 74.5
10/18/19 - 1900 61.6 61 47.8 2.2 WSW | 242 7.3 WSW | 257 0.00 1 0.00 41.3 74.5
10/18/19 - 1800 68.0 48 47.4 6.5 SW | 233 12.1 WSW | 254 0.00 12 0.00 41.3 74.5
10/18/19 - 1700 70.9 41 46.0 8.0 SW | 235 13.6 SW | 235 0.00 28 0.00 41.3 74.5
10/18/19 - 1600 73.0 36 44.2 7.8 WSW | 241 15.5 SW | 233 0.00 44 0.00 41.3 74.5
10/18/19 - 1500 73.1 37 45.2 8.2 WSW | 242 14.5 SW | 226 0.00 56 0.00 41.3 74.0
10/18/19 - 1400 72.9 38 46.1 8.8 SW | 234 16.5 SSW | 205 0.00 63 0.00 41.3 73.9
10/18/19 - 1300 71.3 44 48.5 6.0 WSW | 251 13.5 SW | 228 0.00 56 0.00 41.3 73.0
10/18/19 - 1200 69.5 48 49.2 4.7 W | 275 11.6 W | 263 0.00 50 0.00 41.3 71.2
10/18/19 - 1100 68.3 48 47.8 3.7 SW | 233 12.6 WSW | 256 0.00 36 0.00 41.3 69.9
10/18/19 - 1000 63.4 50 44.6 1.4 SSE | 155 7.4 SSE | 166 0.00 28 0.00 41.3 67.7
10/18/19 - 0900 52.6 70 42.8 0.6 SSE | 166 3.6 SW | 220 0.00 15 0.00 41.3 59.1
10/18/19 - 0800 42.9 89 39.8 0.7 NNE | 19 4.3 E | 86 0.00 3 0.00 41.3 57.0
10/18/19 - 0700 41.9 89 38.8 0.5 E | 80 4.4 ENE | 77 0.00 0 0.00 41.3 57.0
10/18/19 - 0600 42.6 85 38.5 0.8 NE | 36 3.8 N | 6 0.00 0 0.00 42.0 57.0
10/18/19 - 0500 46.2 78 39.6 1.2 ENE | 61 10.0 NE | 53 0.00 0 0.00 43.9 57.0
10/18/19 - 0400 48.9 73 40.6 0.8 NNE | 22 5.3 N | 0 0.00 0 0.00 47.2 57.0
10/18/19 - 0300 50.7 68 40.6 1.0 ENE | 61 5.6 N | 350 0.00 0 0.00 47.8 57.0
10/18/19 - 0200 55.8 58 41.4 2.2 NNW | 330 6.6 NNW | 329 0.00 0 0.00 54.6 57.0
10/18/19 - 0100 58.4 54 41.9 4.4 NNE | 18 11.1 E | 92 0.00 0 0.00 48.8 76.8
10/18/19 - 0000 59.8 52 42.2 5.7 NNW | 342 11.1 NNW | 337 0.00 0 0.00 48.8 76.8
10/17/19 - 2300 60.7 48 41.1 6.8 NNW | 343 12.5 N | 353 0.00 0 0.00 48.8 76.8
10/17/19 - 2200 61.3 45 39.6 5.7 NNW | 339 12.0 NNW | 334 0.00 0 0.00 48.8 76.8
10/17/19 - 2100 62.3 42 38.9 5.1 NNW | 343 10.3 NNW | 337 0.00 0 0.00 48.8 76.8
10/17/19 - 2000 63.7 39 38.3 4.7 NNW | 328 9.5 NW | 313 0.00 0 0.00 48.8 76.8
10/17/19 - 1900 66.1 35 37.5 3.8 NNW | 330 8.8 NNW | 338 0.00 1 0.00 48.8 76.8
10/17/19 - 1800 70.8 30 37.7 5.6 NW | 304 12.6 WNW | 289 0.00 13 0.00 48.8 76.8
10/17/19 - 1700 73.5 28 38.0 6.1 NW | 306 13.6 NW | 318 0.00 29 0.00 48.8 76.8
10/17/19 - 1600 75.3 25 37.5 6.2 WNW | 297 15.2 W | 275 0.00 44 0.00 48.8 76.8
10/17/19 - 1500 75.6 24 36.6 6.5 WNW | 290 14.8 NNW | 336 0.00 56 0.00 48.8 76.8
10/17/19 - 1400 74.8 25 36.5 5.0 WNW | 293 14.0 W | 262 0.00 63 0.00 48.8 76.0
10/17/19 - 1300 72.8 27 36.6 4.8 WNW | 294 13.0 WNW | 289 0.00 63 0.00 48.8 74.5
10/17/19 - 1200 70.1 35 41.2 4.4 NW | 305 10.0 NW | 311 0.00 58 0.00 48.8 71.7
10/17/19 - 1100 67.2 41 42.6 6.2 NNW | 332 13.2 N | 8 0.00 47 0.00 48.8 68.9
10/17/19 - 1000 62.8 52 44.8 4.8 NNW | 333 10.5 NNW | 335 0.00 35 0.00 48.8 66.0
10/17/19 - 0900 55.4 75 47.5 2.4 NNE | 29 9.3 NNW | 328 0.00 14 0.00 48.8 60.8
10/17/19 - 0800 50.9 87 47.0 0.9 NW | 320 4.1 WNW | 287 0.00 2 0.00 48.8 60.8
10/17/19 - 0700 52.3 91 49.8 2.7 NNE | 13 8.6 N | 354 0.00 0 0.00 50.1 60.8
10/17/19 - 0600 50.7 98 50.1 0.5 NNE | 24 3.4 N | 5 0.00 0 0.00 50.1 60.8
10/17/19 - 0500 52.4 94 50.8 1.1 NNE | 23 5.4 ESE | 108 0.00 0 0.00 50.8 60.8
10/17/19 - 0400 55.1 92 52.7 2.1 S | 172 5.8 SW | 217 0.00 0 0.00 54.3 60.8
10/17/19 - 0300 57.7 86 53.6 3.3 WSW | 249 9.5 SW | 236 0.00 0 0.00 55.9 60.8
10/17/19 - 0200 59.9 82 54.6 4.4 W | 271 9.5 N | 349 0.00 0 0.00 58.9 60.8
10/17/19 - 0100 60.7 79 54.3 3.1 WSW | 245 8.0 SW | 222 0.00 0 0.00 38.4 76.5
10/17/19 - 0000 61.8 72 52.8 4.2 NNW | 347 12.3 NNW | 341 0.00 0 0.00 38.4 76.5
10/16/19 - 2300 62.5 68 51.8 6.1 NW | 321 12.6 NNW | 330 0.00 0 0.00 38.4 76.5
10/16/19 - 2200 61.3 65 49.5 4.6 WNW | 297 13.0 WNW | 296 0.00 0 0.00 38.4 76.5
10/16/19 - 2100 60.6 64 48.3 2.3 WSW | 257 8.4 W | 260 0.00 0 0.00 38.4 76.5
10/16/19 - 2000 61.8 60 47.7 4.9 WSW | 252 11.8 WSW | 237 0.00 0 0.00 38.4 76.5
10/16/19 - 1900 62.5 57 47.0 4.5 WSW | 238 9.1 SW | 227 0.00 0 0.00 38.4 76.5
10/16/19 - 1800 65.5 47 44.6 6.0 SW | 235 11.8 WSW | 242 0.00 4 0.00 38.4 76.5
10/16/19 - 1700 70.5 42 46.4 8.4 SW | 233 13.8 SW | 236 0.00 20 0.00 38.4 76.5
10/16/19 - 1600 74.9 30 41.0 4.1 SSW | 204 11.8 WSW | 242 0.00 23 0.00 38.4 76.5
10/16/19 - 1500 75.9 25 37.7 2.9 SSE | 158 9.6 SSE | 160 0.00 34 0.00 38.4 76.5
10/16/19 - 1400 73.7 31 41.2 3.7 SSE | 160 8.1 SE | 145 0.00 44 0.00 38.4 75.4
10/16/19 - 1300 71.4 35 42.2 4.2 SSE | 167 6.8 SSE | 160 0.00 42 0.00 38.4 73.0
10/16/19 - 1200 70.0 36 41.9 2.6 S | 189 7.8 SSW | 209 0.00 43 0.00 38.4 72.7
10/16/19 - 1100 64.4 44 41.7 1.5 SSW | 192 4.4 SSE | 162 0.00 34 0.00 38.4 67.8
10/16/19 - 1000 60.3 49 41.3 0.9 S | 181 3.8 SSW | 194 0.00 16 0.00 38.4 62.1
Max 89.2 98 57.3 8.8 - 16.5 - 0.00 69 0.00 58.9 90.4
Avg 61.7 60 44.6 3.0 - 7.4 - 0.00 16 - - -
Min 40.7 15 32.4 0.0 - 1.6 - 0.00 0 0.00 38.4 42.0
Total - - - - - - - 0.00 - - - -
Tip: Bookmark this page for easy future reference